sensor_id;sensor_type;location;lat;lon;timestamp;P1;durP1;ratioP1;P2;durP2;ratioP2
31910;SDS011;18457;52.432;16.914;2023-03-23T00:01:36;37.70;;;17.90;;
31910;SDS011;18457;52.432;16.914;2023-03-23T00:04:07;35.20;;;16.90;;
31910;SDS011;18457;52.432;16.914;2023-03-23T00:06:40;33.40;;;16.30;;
31910;SDS011;18457;52.432;16.914;2023-03-23T00:11:42;28.70;;;16.50;;
31910;SDS011;18457;52.432;16.914;2023-03-23T00:14:13;33.70;;;18.00;;
31910;SDS011;18457;52.432;16.914;2023-03-23T00:16:44;31.40;;;15.40;;
31910;SDS011;18457;52.432;16.914;2023-03-23T00:19:15;31.70;;;14.80;;
31910;SDS011;18457;52.432;16.914;2023-03-23T00:21:48;29.90;;;15.40;;
31910;SDS011;18457;52.432;16.914;2023-03-23T00:24:21;31.00;;;16.50;;
31910;SDS011;18457;52.432;16.914;2023-03-23T00:26:52;26.10;;;15.70;;
31910;SDS011;18457;52.432;16.914;2023-03-23T00:29:27;24.60;;;14.50;;
31910;SDS011;18457;52.432;16.914;2023-03-23T00:31:57;26.40;;;15.50;;
31910;SDS011;18457;52.432;16.914;2023-03-23T00:34:34;27.90;;;14.40;;
31910;SDS011;18457;52.432;16.914;2023-03-23T00:37:06;29.70;;;13.90;;
31910;SDS011;18457;52.432;16.914;2023-03-23T00:39:39;27.00;;;14.40;;
31910;SDS011;18457;52.432;16.914;2023-03-23T00:42:13;29.80;;;15.40;;
31910;SDS011;18457;52.432;16.914;2023-03-23T00:47:14;27.80;;;14.60;;
31910;SDS011;18457;52.432;16.914;2023-03-23T00:49:45;25.70;;;14.40;;
31910;SDS011;18457;52.432;16.914;2023-03-23T00:52:18;30.00;;;14.70;;
31910;SDS011;18457;52.432;16.914;2023-03-23T00:54:49;29.10;;;13.90;;
31910;SDS011;18457;52.432;16.914;2023-03-23T00:57:19;25.30;;;13.90;;
31910;SDS011;18457;52.432;16.914;2023-03-23T01:02:21;21.30;;;12.80;;
31910;SDS011;18457;52.432;16.914;2023-03-23T01:04:54;21.90;;;13.00;;
31910;SDS011;18457;52.432;16.914;2023-03-23T01:07:26;17.80;;;9.40;;
31910;SDS011;18457;52.432;16.914;2023-03-23T01:09:59;26.90;;;13.60;;
31910;SDS011;18457;52.432;16.914;2023-03-23T01:12:30;18.10;;;9.20;;
31910;SDS011;18457;52.432;16.914;2023-03-23T01:15:01;27.60;;;14.10;;
31910;SDS011;18457;52.432;16.914;2023-03-23T01:17:33;27.60;;;13.90;;
31910;SDS011;18457;52.432;16.914;2023-03-23T01:20:05;20.90;;;12.70;;
31910;SDS011;18457;52.432;16.914;2023-03-23T01:22:37;24.00;;;13.40;;
31910;SDS011;18457;52.432;16.914;2023-03-23T01:25:09;29.00;;;15.10;;
31910;SDS011;18457;52.432;16.914;2023-03-23T01:27:41;27.80;;;14.20;;
31910;SDS011;18457;52.432;16.914;2023-03-23T01:30:13;29.50;;;14.30;;
31910;SDS011;18457;52.432;16.914;2023-03-23T01:32:45;23.50;;;13.80;;
31910;SDS011;18457;52.432;16.914;2023-03-23T01:35:16;25.20;;;13.80;;
31910;SDS011;18457;52.432;16.914;2023-03-23T01:37:48;26.60;;;13.80;;
31910;SDS011;18457;52.432;16.914;2023-03-23T01:40:19;32.10;;;14.20;;
31910;SDS011;18457;52.432;16.914;2023-03-23T01:42:50;25.40;;;14.20;;
31910;SDS011;18457;52.432;16.914;2023-03-23T01:45:26;28.50;;;14.10;;
31910;SDS011;18457;52.432;16.914;2023-03-23T01:48:01;27.30;;;13.20;;
31910;SDS011;18457;52.432;16.914;2023-03-23T01:50:37;25.70;;;14.10;;
31910;SDS011;18457;52.432;16.914;2023-03-23T01:53:13;24.90;;;14.00;;
31910;SDS011;18457;52.432;16.914;2023-03-23T01:55:44;28.60;;;13.90;;
31910;SDS011;18457;52.432;16.914;2023-03-23T01:58:18;29.20;;;14.80;;
31910;SDS011;18457;52.432;16.914;2023-03-23T02:00:55;27.30;;;14.70;;
31910;SDS011;18457;52.432;16.914;2023-03-23T02:03:30;31.40;;;14.10;;
31910;SDS011;18457;52.432;16.914;2023-03-23T02:06:02;33.00;;;15.20;;
31910;SDS011;18457;52.432;16.914;2023-03-23T02:08:41;32.50;;;14.70;;
31910;SDS011;18457;52.432;16.914;2023-03-23T02:11:14;29.90;;;14.70;;
31910;SDS011;18457;52.432;16.914;2023-03-23T02:13:47;31.60;;;15.30;;
31910;SDS011;18457;52.432;16.914;2023-03-23T02:16:21;29.50;;;15.20;;
31910;SDS011;18457;52.432;16.914;2023-03-23T02:19:03;31.50;;;16.20;;
31910;SDS011;18457;52.432;16.914;2023-03-23T02:22:09;38.70;;;15.70;;
31910;SDS011;18457;52.432;16.914;2023-03-23T02:25:04;28.80;;;16.30;;
31910;SDS011;18457;52.432;16.914;2023-03-23T02:27:56;32.30;;;16.70;;
31910;SDS011;18457;52.432;16.914;2023-03-23T02:30:45;30.00;;;15.60;;
31910;SDS011;18457;52.432;16.914;2023-03-23T02:33:32;33.90;;;16.40;;
31910;SDS011;18457;52.432;16.914;2023-03-23T02:36:13;31.00;;;17.20;;
31910;SDS011;18457;52.432;16.914;2023-03-23T02:38:54;33.80;;;16.80;;
31910;SDS011;18457;52.432;16.914;2023-03-23T02:41:32;30.80;;;15.40;;
31910;SDS011;18457;52.432;16.914;2023-03-23T02:44:07;31.10;;;16.00;;
31910;SDS011;18457;52.432;16.914;2023-03-23T02:46:40;33.50;;;16.10;;
31910;SDS011;18457;52.432;16.914;2023-03-23T02:49:12;21.90;;;11.90;;
31910;SDS011;18457;52.432;16.914;2023-03-23T02:51:46;31.30;;;16.80;;
31910;SDS011;18457;52.432;16.914;2023-03-23T02:54:18;33.50;;;16.80;;
31910;SDS011;18457;52.432;16.914;2023-03-23T02:56:53;36.40;;;17.70;;
31910;SDS011;18457;52.432;16.914;2023-03-23T02:59:28;27.60;;;16.40;;
31910;SDS011;18457;52.432;16.914;2023-03-23T03:02:01;34.20;;;17.40;;
31910;SDS011;18457;52.432;16.914;2023-03-23T03:04:36;31.40;;;15.90;;
31910;SDS011;18457;52.432;16.914;2023-03-23T03:10:06;30.20;;;16.10;;
31910;SDS011;18457;52.432;16.914;2023-03-23T03:12:49;27.00;;;15.60;;
31910;SDS011;18457;52.432;16.914;2023-03-23T03:15:27;29.20;;;16.20;;
31910;SDS011;18457;52.432;16.914;2023-03-23T03:18:05;32.80;;;16.30;;
31910;SDS011;18457;52.432;16.914;2023-03-23T03:20:42;28.90;;;17.00;;
31910;SDS011;18457;52.432;16.914;2023-03-23T03:23:16;29.40;;;16.50;;
31910;SDS011;18457;52.432;16.914;2023-03-23T03:25:49;27.20;;;14.50;;
31910;SDS011;18457;52.432;16.914;2023-03-23T03:28:27;24.90;;;15.60;;
31910;SDS011;18457;52.432;16.914;2023-03-23T03:30:58;31.30;;;14.20;;
31910;SDS011;18457;52.432;16.914;2023-03-23T03:33:33;24.80;;;14.40;;
31910;SDS011;18457;52.432;16.914;2023-03-23T03:36:05;25.60;;;14.50;;
31910;SDS011;18457;52.432;16.914;2023-03-23T03:38:44;28.00;;;15.50;;
31910;SDS011;18457;52.432;16.914;2023-03-23T03:41:17;25.70;;;12.90;;
31910;SDS011;18457;52.432;16.914;2023-03-23T03:43:49;29.20;;;14.20;;
31910;SDS011;18457;52.432;16.914;2023-03-23T03:46:20;23.60;;;14.10;;
31910;SDS011;18457;52.432;16.914;2023-03-23T03:48:55;21.50;;;13.50;;
31910;SDS011;18457;52.432;16.914;2023-03-23T03:51:27;24.60;;;13.90;;
31910;SDS011;18457;52.432;16.914;2023-03-23T03:54:00;22.60;;;13.30;;
31910;SDS011;18457;52.432;16.914;2023-03-23T03:56:31;22.10;;;13.30;;
31910;SDS011;18457;52.432;16.914;2023-03-23T03:59:15;27.40;;;11.90;;
31910;SDS011;18457;52.432;16.914;2023-03-23T04:02:06;22.20;;;12.00;;
31910;SDS011;18457;52.432;16.914;2023-03-23T04:04:37;24.00;;;13.10;;
31910;SDS011;18457;52.432;16.914;2023-03-23T04:07:09;19.60;;;12.50;;
31910;SDS011;18457;52.432;16.914;2023-03-23T04:09:41;21.00;;;12.10;;
31910;SDS011;18457;52.432;16.914;2023-03-23T04:12:16;17.80;;;11.30;;
31910;SDS011;18457;52.432;16.914;2023-03-23T04:17:31;21.50;;;11.00;;
31910;SDS011;18457;52.432;16.914;2023-03-23T04:20:04;17.90;;;10.30;;
31910;SDS011;18457;52.432;16.914;2023-03-23T04:22:43;16.30;;;9.60;;
31910;SDS011;18457;52.432;16.914;2023-03-23T04:25:18;12.90;;;9.00;;
31910;SDS011;18457;52.432;16.914;2023-03-23T04:27:50;18.80;;;9.90;;
31910;SDS011;18457;52.432;16.914;2023-03-23T04:30:28;14.80;;;8.90;;
31910;SDS011;18457;52.432;16.914;2023-03-23T04:33:08;21.40;;;9.40;;
31910;SDS011;18457;52.432;16.914;2023-03-23T04:35:42;14.60;;;8.50;;
31910;SDS011;18457;52.432;16.914;2023-03-23T04:38:21;13.50;;;8.10;;
31910;SDS011;18457;52.432;16.914;2023-03-23T04:40:58;12.40;;;8.30;;
31910;SDS011;18457;52.432;16.914;2023-03-23T04:43:44;14.30;;;8.30;;
31910;SDS011;18457;52.432;16.914;2023-03-23T04:46:32;14.70;;;6.60;;
31910;SDS011;18457;52.432;16.914;2023-03-23T04:49:08;9.50;;;6.10;;
31910;SDS011;18457;52.432;16.914;2023-03-23T04:51:40;15.30;;;6.90;;
31910;SDS011;18457;52.432;16.914;2023-03-23T04:54:18;12.20;;;6.20;;
31910;SDS011;18457;52.432;16.914;2023-03-23T04:56:52;12.10;;;6.10;;
31910;SDS011;18457;52.432;16.914;2023-03-23T04:59:23;9.20;;;5.60;;
31910;SDS011;18457;52.432;16.914;2023-03-23T05:02:13;18.00;;;6.00;;
31910;SDS011;18457;52.432;16.914;2023-03-23T05:04:47;9.40;;;5.60;;
31910;SDS011;18457;52.432;16.914;2023-03-23T05:07:26;9.10;;;5.20;;
31910;SDS011;18457;52.432;16.914;2023-03-23T05:09:57;10.40;;;5.00;;
31910;SDS011;18457;52.432;16.914;2023-03-23T05:12:30;11.80;;;5.20;;
31910;SDS011;18457;52.432;16.914;2023-03-23T05:15:07;12.00;;;5.80;;
31910;SDS011;18457;52.432;16.914;2023-03-23T05:17:39;11.00;;;5.10;;
31910;SDS011;18457;52.432;16.914;2023-03-23T05:20:15;11.30;;;6.10;;
31910;SDS011;18457;52.432;16.914;2023-03-23T05:22:51;8.40;;;5.40;;
31910;SDS011;18457;52.432;16.914;2023-03-23T05:25:29;16.60;;;5.10;;
31910;SDS011;18457;52.432;16.914;2023-03-23T05:28:07;9.90;;;5.70;;
31910;SDS011;18457;52.432;16.914;2023-03-23T05:30:58;9.60;;;5.30;;
31910;SDS011;18457;52.432;16.914;2023-03-23T05:33:32;7.30;;;4.70;;
31910;SDS011;18457;52.432;16.914;2023-03-23T05:36:36;11.00;;;5.00;;
31910;SDS011;18457;52.432;16.914;2023-03-23T05:39:25;11.00;;;5.30;;
31910;SDS011;18457;52.432;16.914;2023-03-23T05:42:33;11.40;;;5.80;;
31910;SDS011;18457;52.432;16.914;2023-03-23T05:45:13;10.70;;;5.80;;
31910;SDS011;18457;52.432;16.914;2023-03-23T05:47:46;10.60;;;5.40;;
31910;SDS011;18457;52.432;16.914;2023-03-23T05:50:20;17.20;;;5.70;;
31910;SDS011;18457;52.432;16.914;2023-03-23T05:52:51;8.50;;;5.40;;
31910;SDS011;18457;52.432;16.914;2023-03-23T05:55:23;6.40;;;5.00;;
31910;SDS011;18457;52.432;16.914;2023-03-23T05:58:02;14.10;;;5.10;;
31910;SDS011;18457;52.432;16.914;2023-03-23T06:00:35;6.50;;;4.20;;
31910;SDS011;18457;52.432;16.914;2023-03-23T06:03:13;9.50;;;4.90;;
31910;SDS011;18457;52.432;16.914;2023-03-23T06:05:52;9.50;;;4.80;;
31910;SDS011;18457;52.432;16.914;2023-03-23T06:08:27;8.10;;;4.70;;
31910;SDS011;18457;52.432;16.914;2023-03-23T06:10:59;11.70;;;5.10;;
31910;SDS011;18457;52.432;16.914;2023-03-23T06:13:30;8.80;;;4.10;;
31910;SDS011;18457;52.432;16.914;2023-03-23T06:16:09;5.00;;;3.80;;
31910;SDS011;18457;52.432;16.914;2023-03-23T06:18:49;6.80;;;3.90;;
31910;SDS011;18457;52.432;16.914;2023-03-23T06:21:33;9.40;;;4.90;;
31910;SDS011;18457;52.432;16.914;2023-03-23T06:24:40;17.20;;;5.20;;
31910;SDS011;18457;52.432;16.914;2023-03-23T06:27:12;10.70;;;5.20;;
31910;SDS011;18457;52.432;16.914;2023-03-23T06:29:44;8.10;;;4.30;;
31910;SDS011;18457;52.432;16.914;2023-03-23T06:32:17;13.20;;;4.20;;
31910;SDS011;18457;52.432;16.914;2023-03-23T06:34:51;8.50;;;5.30;;
31910;SDS011;18457;52.432;16.914;2023-03-23T06:40:37;7.10;;;4.60;;
31910;SDS011;18457;52.432;16.914;2023-03-23T06:43:08;10.40;;;4.50;;
31910;SDS011;18457;52.432;16.914;2023-03-23T06:45:48;7.20;;;4.70;;
31910;SDS011;18457;52.432;16.914;2023-03-23T06:48:38;5.80;;;3.90;;
31910;SDS011;18457;52.432;16.914;2023-03-23T06:51:11;11.50;;;4.90;;
31910;SDS011;18457;52.432;16.914;2023-03-23T06:53:44;9.00;;;4.20;;
31910;SDS011;18457;52.432;16.914;2023-03-23T06:56:16;8.70;;;4.10;;
31910;SDS011;18457;52.432;16.914;2023-03-23T06:58:47;7.80;;;4.00;;
31910;SDS011;18457;52.432;16.914;2023-03-23T07:01:19;8.70;;;3.60;;
31910;SDS011;18457;52.432;16.914;2023-03-23T07:03:56;7.60;;;3.50;;
31910;SDS011;18457;52.432;16.914;2023-03-23T07:06:52;10.70;;;3.80;;
31910;SDS011;18457;52.432;16.914;2023-03-23T07:09:24;11.20;;;3.80;;
31910;SDS011;18457;52.432;16.914;2023-03-23T07:11:56;12.30;;;3.50;;
31910;SDS011;18457;52.432;16.914;2023-03-23T07:14:34;8.00;;;3.50;;
31910;SDS011;18457;52.432;16.914;2023-03-23T07:17:05;10.20;;;3.50;;
31910;SDS011;18457;52.432;16.914;2023-03-23T07:19:40;8.80;;;3.80;;
31910;SDS011;18457;52.432;16.914;2023-03-23T07:22:12;9.00;;;3.80;;
31910;SDS011;18457;52.432;16.914;2023-03-23T07:24:46;12.40;;;3.60;;
31910;SDS011;18457;52.432;16.914;2023-03-23T07:27:25;12.40;;;4.20;;
31910;SDS011;18457;52.432;16.914;2023-03-23T07:29:58;10.90;;;4.30;;
31910;SDS011;18457;52.432;16.914;2023-03-23T07:32:29;11.20;;;4.50;;
31910;SDS011;18457;52.432;16.914;2023-03-23T07:35:00;9.40;;;4.50;;
31910;SDS011;18457;52.432;16.914;2023-03-23T07:37:46;9.10;;;4.30;;
31910;SDS011;18457;52.432;16.914;2023-03-23T07:40:18;7.80;;;4.00;;
31910;SDS011;18457;52.432;16.914;2023-03-23T07:42:53;9.30;;;3.90;;
31910;SDS011;18457;52.432;16.914;2023-03-23T07:45:35;9.80;;;4.30;;
31910;SDS011;18457;52.432;16.914;2023-03-23T07:48:07;6.80;;;4.40;;
31910;SDS011;18457;52.432;16.914;2023-03-23T07:50:39;7.30;;;3.80;;
31910;SDS011;18457;52.432;16.914;2023-03-23T07:55:42;8.20;;;4.10;;
31910;SDS011;18457;52.432;16.914;2023-03-23T07:58:33;6.10;;;3.80;;
31910;SDS011;18457;52.432;16.914;2023-03-23T08:01:10;8.10;;;4.10;;
31910;SDS011;18457;52.432;16.914;2023-03-23T08:03:42;7.70;;;3.20;;
31910;SDS011;18457;52.432;16.914;2023-03-23T08:06:20;6.60;;;3.10;;
31910;SDS011;18457;52.432;16.914;2023-03-23T08:09:07;8.10;;;2.90;;
31910;SDS011;18457;52.432;16.914;2023-03-23T08:12:02;9.00;;;3.40;;
31910;SDS011;18457;52.432;16.914;2023-03-23T08:14:57;9.50;;;3.60;;
31910;SDS011;18457;52.432;16.914;2023-03-23T08:17:45;8.60;;;3.60;;
31910;SDS011;18457;52.432;16.914;2023-03-23T08:20:36;5.90;;;3.10;;
31910;SDS011;18457;52.432;16.914;2023-03-23T08:23:15;6.70;;;3.40;;
31910;SDS011;18457;52.432;16.914;2023-03-23T08:26:03;6.70;;;3.10;;
31910;SDS011;18457;52.432;16.914;2023-03-23T08:28:54;6.10;;;3.50;;
31910;SDS011;18457;52.432;16.914;2023-03-23T08:31:39;6.40;;;3.20;;
31910;SDS011;18457;52.432;16.914;2023-03-23T08:34:28;6.20;;;3.50;;
31910;SDS011;18457;52.432;16.914;2023-03-23T08:37:11;5.80;;;3.20;;
31910;SDS011;18457;52.432;16.914;2023-03-23T08:40:09;5.20;;;3.20;;
31910;SDS011;18457;52.432;16.914;2023-03-23T08:42:50;4.80;;;3.10;;
31910;SDS011;18457;52.432;16.914;2023-03-23T08:45:28;7.30;;;3.00;;
31910;SDS011;18457;52.432;16.914;2023-03-23T08:48:18;6.10;;;3.00;;
31910;SDS011;18457;52.432;16.914;2023-03-23T08:51:18;5.50;;;3.50;;
31910;SDS011;18457;52.432;16.914;2023-03-23T08:54:12;10.60;;;3.40;;
31910;SDS011;18457;52.432;16.914;2023-03-23T08:57:03;6.10;;;3.00;;
31910;SDS011;18457;52.432;16.914;2023-03-23T08:59:50;9.70;;;3.40;;
31910;SDS011;18457;52.432;16.914;2023-03-23T09:02:42;8.70;;;3.20;;
31910;SDS011;18457;52.432;16.914;2023-03-23T09:05:21;4.50;;;2.90;;
31910;SDS011;18457;52.432;16.914;2023-03-23T09:08:17;4.00;;;2.40;;
31910;SDS011;18457;52.432;16.914;2023-03-23T09:10:48;6.60;;;3.30;;
31910;SDS011;18457;52.432;16.914;2023-03-23T09:13:20;6.70;;;3.20;;
31910;SDS011;18457;52.432;16.914;2023-03-23T09:15:51;7.40;;;3.80;;
31910;SDS011;18457;52.432;16.914;2023-03-23T09:18:22;6.10;;;3.10;;
31910;SDS011;18457;52.432;16.914;2023-03-23T09:20:53;10.60;;;3.20;;
31910;SDS011;18457;52.432;16.914;2023-03-23T09:23:25;5.70;;;2.60;;
31910;SDS011;18457;52.432;16.914;2023-03-23T09:25:56;8.40;;;3.50;;
31910;SDS011;18457;52.432;16.914;2023-03-23T09:28:28;6.30;;;3.40;;
31910;SDS011;18457;52.432;16.914;2023-03-23T09:31:00;9.00;;;4.30;;
31910;SDS011;18457;52.432;16.914;2023-03-23T09:33:32;15.60;;;4.10;;
31910;SDS011;18457;52.432;16.914;2023-03-23T09:36:04;6.50;;;2.80;;
31910;SDS011;18457;52.432;16.914;2023-03-23T09:38:40;7.10;;;3.20;;
31910;SDS011;18457;52.432;16.914;2023-03-23T09:41:16;5.30;;;2.90;;
31910;SDS011;18457;52.432;16.914;2023-03-23T09:44:05;6.50;;;3.40;;
31910;SDS011;18457;52.432;16.914;2023-03-23T09:46:48;6.20;;;2.80;;
31910;SDS011;18457;52.432;16.914;2023-03-23T09:49:27;9.00;;;2.70;;
31910;SDS011;18457;52.432;16.914;2023-03-23T09:52:03;10.70;;;2.60;;
31910;SDS011;18457;52.432;16.914;2023-03-23T09:54:39;5.70;;;2.70;;
31910;SDS011;18457;52.432;16.914;2023-03-23T09:57:14;4.30;;;2.20;;
31910;SDS011;18457;52.432;16.914;2023-03-23T09:59:51;5.60;;;2.20;;
31910;SDS011;18457;52.432;16.914;2023-03-23T10:02:28;5.90;;;2.40;;
31910;SDS011;18457;52.432;16.914;2023-03-23T10:05:11;6.10;;;2.60;;
31910;SDS011;18457;52.432;16.914;2023-03-23T10:07:59;2.90;;;2.00;;
31910;SDS011;18457;52.432;16.914;2023-03-23T10:10:37;9.10;;;2.60;;
31910;SDS011;18457;52.432;16.914;2023-03-23T10:13:17;14.30;;;2.60;;
31910;SDS011;18457;52.432;16.914;2023-03-23T10:15:53;9.70;;;3.50;;
31910;SDS011;18457;52.432;16.914;2023-03-23T10:18:27;7.20;;;2.50;;
31910;SDS011;18457;52.432;16.914;2023-03-23T10:21:06;7.80;;;2.30;;
31910;SDS011;18457;52.432;16.914;2023-03-23T10:23:44;4.90;;;2.00;;
31910;SDS011;18457;52.432;16.914;2023-03-23T10:26:28;5.40;;;2.20;;
31910;SDS011;18457;52.432;16.914;2023-03-23T10:29:12;5.20;;;3.00;;
31910;SDS011;18457;52.432;16.914;2023-03-23T10:31:47;5.20;;;2.50;;
31910;SDS011;18457;52.432;16.914;2023-03-23T10:34:25;5.40;;;2.10;;
31910;SDS011;18457;52.432;16.914;2023-03-23T10:37:03;3.90;;;2.10;;
31910;SDS011;18457;52.432;16.914;2023-03-23T10:39:43;3.30;;;2.60;;
31910;SDS011;18457;52.432;16.914;2023-03-23T10:42:25;4.20;;;2.20;;
31910;SDS011;18457;52.432;16.914;2023-03-23T10:44:59;3.70;;;2.50;;
31910;SDS011;18457;52.432;16.914;2023-03-23T10:47:41;4.40;;;2.80;;
31910;SDS011;18457;52.432;16.914;2023-03-23T10:50:15;4.20;;;2.70;;
31910;SDS011;18457;52.432;16.914;2023-03-23T10:52:52;5.20;;;2.40;;
31910;SDS011;18457;52.432;16.914;2023-03-23T10:55:24;3.60;;;2.60;;
31910;SDS011;18457;52.432;16.914;2023-03-23T10:58:08;3.70;;;2.60;;
31910;SDS011;18457;52.432;16.914;2023-03-23T11:00:41;3.50;;;2.30;;
31910;SDS011;18457;52.432;16.914;2023-03-23T11:03:26;6.80;;;3.00;;
31910;SDS011;18457;52.432;16.914;2023-03-23T11:06:05;5.70;;;2.60;;
31910;SDS011;18457;52.432;16.914;2023-03-23T11:08:47;7.50;;;2.40;;
31910;SDS011;18457;52.432;16.914;2023-03-23T11:11:24;5.00;;;1.90;;
31910;SDS011;18457;52.432;16.914;2023-03-23T11:13:58;3.00;;;1.90;;
31910;SDS011;18457;52.432;16.914;2023-03-23T11:16:32;3.20;;;2.10;;
31910;SDS011;18457;52.432;16.914;2023-03-23T11:19:13;4.50;;;2.30;;
31910;SDS011;18457;52.432;16.914;2023-03-23T11:22:05;8.10;;;2.30;;
31910;SDS011;18457;52.432;16.914;2023-03-23T11:24:40;4.80;;;2.10;;
31910;SDS011;18457;52.432;16.914;2023-03-23T11:27:14;6.50;;;2.40;;
31910;SDS011;18457;52.432;16.914;2023-03-23T11:29:48;3.50;;;2.20;;
31910;SDS011;18457;52.432;16.914;2023-03-23T11:32:25;4.30;;;2.10;;
31910;SDS011;18457;52.432;16.914;2023-03-23T11:34:58;10.80;;;3.30;;
31910;SDS011;18457;52.432;16.914;2023-03-23T11:37:34;4.10;;;2.20;;
31910;SDS011;18457;52.432;16.914;2023-03-23T11:40:16;4.50;;;1.90;;
31910;SDS011;18457;52.432;16.914;2023-03-23T11:42:49;3.90;;;1.70;;
31910;SDS011;18457;52.432;16.914;2023-03-23T11:45:32;4.30;;;2.00;;
31910;SDS011;18457;52.432;16.914;2023-03-23T11:48:10;3.40;;;2.30;;
31910;SDS011;18457;52.432;16.914;2023-03-23T11:50:51;3.60;;;2.30;;
31910;SDS011;18457;52.432;16.914;2023-03-23T11:53:27;5.60;;;2.20;;
31910;SDS011;18457;52.432;16.914;2023-03-23T11:56:10;2.60;;;2.20;;
31910;SDS011;18457;52.432;16.914;2023-03-23T11:58:45;3.60;;;2.10;;
31910;SDS011;18457;52.432;16.914;2023-03-23T12:01:19;2.90;;;2.00;;
31910;SDS011;18457;52.432;16.914;2023-03-23T12:10:01;4.60;;;2.50;;
31910;SDS011;18457;52.432;16.914;2023-03-23T12:12:46;3.70;;;2.10;;
31910;SDS011;18457;52.432;16.914;2023-03-23T12:15:24;4.00;;;2.40;;
31910;SDS011;18457;52.432;16.914;2023-03-23T12:18:01;4.40;;;1.90;;
31910;SDS011;18457;52.432;16.914;2023-03-23T12:20:44;2.50;;;2.10;;
31910;SDS011;18457;52.432;16.914;2023-03-23T12:23:23;4.30;;;1.70;;
31910;SDS011;18457;52.432;16.914;2023-03-23T12:26:02;3.20;;;1.70;;
31910;SDS011;18457;52.432;16.914;2023-03-23T12:28:50;5.00;;;1.70;;
31910;SDS011;18457;52.432;16.914;2023-03-23T12:31:38;3.10;;;2.20;;
31910;SDS011;18457;52.432;16.914;2023-03-23T12:34:20;3.80;;;1.60;;
31910;SDS011;18457;52.432;16.914;2023-03-23T12:37:07;4.70;;;2.20;;
31910;SDS011;18457;52.432;16.914;2023-03-23T12:39:52;4.20;;;1.90;;
31910;SDS011;18457;52.432;16.914;2023-03-23T12:42:39;5.30;;;2.10;;
31910;SDS011;18457;52.432;16.914;2023-03-23T12:45:19;3.80;;;2.20;;
31910;SDS011;18457;52.432;16.914;2023-03-23T12:47:55;3.30;;;2.30;;
31910;SDS011;18457;52.432;16.914;2023-03-23T12:50:30;3.10;;;2.20;;
31910;SDS011;18457;52.432;16.914;2023-03-23T12:53:08;4.30;;;2.40;;
31910;SDS011;18457;52.432;16.914;2023-03-23T12:55:46;9.00;;;2.30;;
31910;SDS011;18457;52.432;16.914;2023-03-23T12:58:20;3.00;;;2.20;;
31910;SDS011;18457;52.432;16.914;2023-03-23T13:00:55;3.20;;;2.40;;
31910;SDS011;18457;52.432;16.914;2023-03-23T13:03:31;5.40;;;2.50;;
31910;SDS011;18457;52.432;16.914;2023-03-23T13:06:10;5.30;;;2.70;;
31910;SDS011;18457;52.432;16.914;2023-03-23T13:08:48;4.00;;;2.70;;
31910;SDS011;18457;52.432;16.914;2023-03-23T13:11:24;5.90;;;2.80;;
31910;SDS011;18457;52.432;16.914;2023-03-23T13:14:02;4.00;;;1.90;;
31910;SDS011;18457;52.432;16.914;2023-03-23T13:16:42;5.30;;;2.70;;
31910;SDS011;18457;52.432;16.914;2023-03-23T13:19:19;6.10;;;3.00;;
31910;SDS011;18457;52.432;16.914;2023-03-23T13:21:58;4.80;;;2.80;;
31910;SDS011;18457;52.432;16.914;2023-03-23T13:24:38;6.60;;;3.30;;
31910;SDS011;18457;52.432;16.914;2023-03-23T13:27:13;7.60;;;2.80;;
31910;SDS011;18457;52.432;16.914;2023-03-23T13:29:45;4.30;;;2.60;;
31910;SDS011;18457;52.432;16.914;2023-03-23T13:32:17;4.50;;;2.50;;
31910;SDS011;18457;52.432;16.914;2023-03-23T13:34:49;7.90;;;2.60;;
31910;SDS011;18457;52.432;16.914;2023-03-23T13:37:22;5.40;;;3.10;;
31910;SDS011;18457;52.432;16.914;2023-03-23T13:39:56;3.50;;;2.40;;
31910;SDS011;18457;52.432;16.914;2023-03-23T13:42:29;7.70;;;3.10;;
31910;SDS011;18457;52.432;16.914;2023-03-23T13:45:18;3.70;;;2.70;;
31910;SDS011;18457;52.432;16.914;2023-03-23T13:48:03;4.70;;;2.90;;
31910;SDS011;18457;52.432;16.914;2023-03-23T13:50:51;5.40;;;3.10;;
31910;SDS011;18457;52.432;16.914;2023-03-23T13:53:28;8.00;;;3.10;;
31910;SDS011;18457;52.432;16.914;2023-03-23T13:56:15;7.50;;;3.50;;
31910;SDS011;18457;52.432;16.914;2023-03-23T13:58:50;6.20;;;3.60;;
31910;SDS011;18457;52.432;16.914;2023-03-23T14:01:33;5.10;;;3.50;;
31910;SDS011;18457;52.432;16.914;2023-03-23T14:04:09;6.10;;;2.90;;
31910;SDS011;18457;52.432;16.914;2023-03-23T14:06:44;5.00;;;2.90;;
31910;SDS011;18457;52.432;16.914;2023-03-23T14:09:22;8.80;;;3.00;;
31910;SDS011;18457;52.432;16.914;2023-03-23T14:11:57;4.80;;;2.70;;
31910;SDS011;18457;52.432;16.914;2023-03-23T14:14:40;4.50;;;2.50;;
31910;SDS011;18457;52.432;16.914;2023-03-23T14:17:13;6.70;;;2.90;;
31910;SDS011;18457;52.432;16.914;2023-03-23T14:19:46;7.00;;;2.70;;
31910;SDS011;18457;52.432;16.914;2023-03-23T14:22:23;5.90;;;3.10;;
31910;SDS011;18457;52.432;16.914;2023-03-23T14:25:00;4.80;;;2.90;;
31910;SDS011;18457;52.432;16.914;2023-03-23T14:27:39;6.40;;;3.20;;
31910;SDS011;18457;52.432;16.914;2023-03-23T14:30:14;4.70;;;2.80;;
31910;SDS011;18457;52.432;16.914;2023-03-23T14:32:47;5.90;;;3.00;;
31910;SDS011;18457;52.432;16.914;2023-03-23T14:37:52;5.50;;;3.10;;
31910;SDS011;18457;52.432;16.914;2023-03-23T14:40:25;8.40;;;3.50;;
31910;SDS011;18457;52.432;16.914;2023-03-23T14:42:58;4.40;;;2.50;;
31910;SDS011;18457;52.432;16.914;2023-03-23T14:45:30;5.00;;;3.10;;
31910;SDS011;18457;52.432;16.914;2023-03-23T14:48:03;3.60;;;2.20;;
31910;SDS011;18457;52.432;16.914;2023-03-23T14:50:38;7.60;;;3.60;;
31910;SDS011;18457;52.432;16.914;2023-03-23T14:53:15;5.10;;;2.90;;
31910;SDS011;18457;52.432;16.914;2023-03-23T14:55:49;4.00;;;2.70;;
31910;SDS011;18457;52.432;16.914;2023-03-23T14:58:22;4.30;;;2.60;;
31910;SDS011;18457;52.432;16.914;2023-03-23T15:00:54;6.20;;;2.90;;
31910;SDS011;18457;52.432;16.914;2023-03-23T15:03:28;5.20;;;2.80;;
31910;SDS011;18457;52.432;16.914;2023-03-23T15:06:10;4.50;;;2.50;;
31910;SDS011;18457;52.432;16.914;2023-03-23T15:08:45;7.60;;;3.20;;
31910;SDS011;18457;52.432;16.914;2023-03-23T15:11:22;5.30;;;3.10;;
31910;SDS011;18457;52.432;16.914;2023-03-23T15:14:10;5.10;;;3.10;;
31910;SDS011;18457;52.432;16.914;2023-03-23T15:16:46;4.80;;;3.00;;
31910;SDS011;18457;52.432;16.914;2023-03-23T15:19:21;5.60;;;2.90;;
31910;SDS011;18457;52.432;16.914;2023-03-23T15:21:55;7.50;;;3.50;;
31910;SDS011;18457;52.432;16.914;2023-03-23T15:24:34;6.10;;;3.80;;
31910;SDS011;18457;52.432;16.914;2023-03-23T15:27:13;5.60;;;3.50;;
31910;SDS011;18457;52.432;16.914;2023-03-23T15:29:50;6.70;;;3.10;;
31910;SDS011;18457;52.432;16.914;2023-03-23T15:32:23;6.00;;;3.70;;
31910;SDS011;18457;52.432;16.914;2023-03-23T15:34:56;6.00;;;3.10;;
31910;SDS011;18457;52.432;16.914;2023-03-23T15:37:33;9.70;;;4.70;;
31910;SDS011;18457;52.432;16.914;2023-03-23T15:40:15;6.00;;;3.20;;
31910;SDS011;18457;52.432;16.914;2023-03-23T15:42:48;8.20;;;4.00;;
31910;SDS011;18457;52.432;16.914;2023-03-23T15:45:36;5.30;;;3.10;;
31910;SDS011;18457;52.432;16.914;2023-03-23T15:48:11;5.80;;;3.40;;
31910;SDS011;18457;52.432;16.914;2023-03-23T15:50:43;5.30;;;3.50;;
31910;SDS011;18457;52.432;16.914;2023-03-23T15:53:27;7.30;;;3.80;;